createdAt,value
2022-08-26T00:03:46.280Z,59.97
2022-08-26T00:08:48.844Z,59.90
2022-08-26T00:13:51.084Z,60.07
2022-08-26T00:18:56.559Z,59.81
2022-08-26T00:23:58.751Z,60.10
2022-08-26T00:29:01.099Z,60.73
2022-08-26T00:34:03.347Z,61.00
2022-08-26T00:39:07.675Z,60.76
2022-08-26T00:44:11.336Z,61.25
2022-08-26T00:49:17.492Z,61.81
2022-08-26T00:54:22.169Z,61.59
2022-08-26T00:59:26.282Z,61.61
2022-08-26T01:04:28.950Z,61.45
2022-08-26T01:09:31.960Z,61.57
2022-08-26T01:14:36.762Z,61.75
2022-08-26T01:19:44.396Z,62.29
2022-08-26T01:24:47.578Z,61.83
2022-08-26T01:29:51.294Z,61.94
2022-08-26T01:34:53.608Z,61.73
2022-08-26T01:39:57.333Z,62.16
2022-08-26T01:45:09.047Z,62.97
2022-08-26T01:50:17.920Z,63.06
2022-08-26T01:55:32.999Z,62.99
2022-08-26T02:00:36.670Z,63.09
2022-08-26T02:05:39.022Z,63.47
2022-08-26T02:10:42.404Z,63.41
2022-08-26T02:15:45.914Z,63.72
2022-08-26T02:20:51.716Z,64.17
2022-08-26T02:26:04.744Z,64.71
2022-08-26T02:31:07.992Z,64.12
2022-08-26T02:36:10.551Z,63.95
2022-08-26T02:41:14.409Z,63.96
2022-08-26T02:46:21.468Z,64.32
2022-08-26T02:51:32.344Z,64.28
2022-08-26T02:56:36.463Z,64.33
2022-08-26T03:01:40.719Z,64.58
2022-08-26T03:06:43.049Z,64.56
2022-08-26T03:11:49.206Z,64.60
2022-08-26T03:16:54.139Z,64.55
2022-08-26T03:21:57.909Z,64.80
2022-08-26T03:27:02.098Z,65.22
2022-08-26T03:32:10.060Z,65.42
2022-08-26T03:37:12.908Z,65.53
2022-08-26T03:42:15.186Z,65.43
2022-08-26T03:47:18.292Z,65.87
2022-08-26T03:52:20.470Z,65.68
2022-08-26T03:57:23.521Z,65.95
2022-08-26T04:02:26.121Z,65.76
2022-08-26T04:07:28.419Z,66.21
2022-08-26T04:12:34.615Z,66.08
2022-08-26T04:17:36.986Z,65.94
2022-08-26T04:22:39.274Z,66.34
2022-08-26T04:27:42.852Z,66.62
2022-08-26T04:32:45.803Z,67.01
2022-08-26T04:37:49.583Z,67.55
2022-08-26T04:42:51.846Z,67.27
2022-08-26T04:47:57.266Z,68.31
2022-08-26T04:53:00.129Z,67.19
2022-08-26T04:58:02.411Z,67.04
2022-08-26T05:03:04.642Z,66.57
2022-08-26T05:08:08.631Z,66.43
2022-08-26T05:13:15.741Z,65.88
2022-08-26T05:18:21.419Z,64.02
2022-08-26T05:23:25.491Z,63.00
2022-08-26T05:28:29.942Z,62.80
2022-08-26T05:33:32.197Z,62.21
2022-08-26T05:38:35.938Z,61.07
2022-08-26T05:43:38.627Z,60.09
2022-08-26T05:48:44.216Z,59.44
2022-08-26T05:53:54.828Z,57.54
2022-08-26T05:58:58.413Z,56.90
2022-08-26T06:04:03.312Z,56.40
2022-08-26T06:09:06.612Z,55.26
2022-08-26T06:14:12.082Z,54.83
2022-08-26T06:19:15.834Z,52.38
2022-08-26T06:24:36.656Z,52.20
2022-08-26T06:29:39.243Z,52.09
2022-08-26T06:34:44.855Z,51.36
2022-08-26T06:39:47.254Z,49.37
2022-08-26T06:44:53.497Z,49.69
2022-08-26T06:49:55.816Z,48.15
2022-08-26T06:54:58.789Z,47.11
2022-08-26T07:00:01.231Z,46.50
2022-08-26T07:05:08.248Z,45.48
2022-08-26T07:10:11.401Z,44.12
2022-08-26T07:15:13.703Z,44.41
2022-08-26T07:20:18.275Z,43.44
2022-08-26T07:25:21.748Z,43.29
2022-08-26T07:30:27.393Z,43.50
2022-08-26T07:35:29.723Z,41.11
2022-08-26T07:40:34.168Z,40.44
2022-08-26T07:45:36.485Z,39.17
2022-08-26T07:50:49.386Z,39.61
2022-08-26T07:55:52.814Z,39.77
2022-08-26T08:00:56.060Z,39.52
2022-08-26T08:05:58.474Z,38.30
2022-08-26T08:11:00.785Z,38.00
2022-08-26T08:16:03.402Z,37.43
2022-08-26T08:21:21.276Z,36.44
2022-08-26T08:26:25.729Z,36.94
2022-08-26T08:31:56.260Z,36.28
2022-08-26T08:36:54.288Z,36.41
2022-08-26T08:41:56.507Z,36.24
2022-08-26T08:47:04.557Z,35.79
2022-08-26T08:52:20.495Z,36.02
2022-08-26T08:57:30.707Z,34.76
2022-08-26T09:02:39.448Z,34.28
2022-08-26T09:07:49.668Z,32.36
2022-08-26T09:12:53.345Z,32.59
2022-08-26T09:18:27.117Z,33.93
2022-08-26T09:23:30.952Z,32.22
2022-08-26T09:28:33.177Z,31.84
2022-08-26T09:33:35.997Z,32.25
2022-08-26T09:38:38.416Z,30.99
2022-08-26T09:43:41.850Z,30.58
2022-08-26T09:48:44.283Z,30.04
2022-08-26T09:54:01.169Z,31.10
2022-08-26T09:59:06.479Z,29.23
2022-08-26T10:04:20.221Z,28.03
2022-08-26T10:09:24.213Z,27.99
2022-08-26T10:19:56.744Z,27.47
2022-08-26T10:25:04.306Z,27.27
2022-08-26T10:30:11.825Z,30.58
2022-08-26T10:35:16.312Z,28.63
2022-08-26T10:40:53.135Z,28.70
2022-08-26T10:46:01.286Z,26.54
2022-08-26T10:51:04.726Z,26.74
2022-08-26T10:56:18.551Z,27.09
2022-08-26T11:01:47.131Z,27.14
2022-08-26T11:07:31.713Z,27.50
2022-08-26T11:12:37.548Z,26.96
2022-08-26T11:18:10.095Z,27.80
2022-08-26T11:23:25.221Z,25.78
2022-08-26T11:28:46.086Z,25.90
2022-08-26T11:34:00.273Z,27.05
2022-08-26T11:39:29.003Z,26.85
2022-08-26T11:44:41.906Z,26.57
2022-08-26T11:50:16.611Z,27.33
2022-08-26T11:55:19.167Z,26.29
2022-08-26T12:00:25.066Z,26.73
2022-08-26T12:05:31.416Z,25.76
2022-08-26T12:10:34.745Z,25.80
2022-08-26T12:15:36.923Z,25.66
2022-08-26T12:20:46.455Z,26.30
2022-08-26T12:25:50.904Z,26.47
2022-08-26T12:31:04.049Z,27.17
2022-08-26T12:36:07.214Z,27.35
2022-08-26T12:41:09.535Z,26.55
2022-08-26T12:46:16.124Z,26.04
2022-08-26T12:51:30.526Z,26.27
2022-08-26T12:56:39.741Z,25.04
2022-08-26T13:01:44.609Z,26.17
2022-08-26T13:06:48.125Z,26.21
2022-08-26T13:11:53.142Z,25.48
2022-08-26T13:16:55.457Z,25.28
2022-08-26T13:22:01.833Z,25.28
2022-08-26T13:27:05.367Z,25.01
2022-08-26T13:32:08.242Z,25.54
2022-08-26T13:37:11.449Z,24.78
2022-08-26T13:42:16.859Z,25.41
2022-08-26T13:47:20.780Z,25.79
2022-08-26T13:52:30.796Z,26.11
2022-08-26T13:57:33.467Z,25.77
2022-08-26T14:02:35.760Z,24.86
2022-08-26T14:07:37.997Z,25.11
2022-08-26T14:12:40.341Z,25.74
2022-08-26T14:17:42.880Z,25.68
2022-08-26T14:23:03.484Z,25.47
2022-08-26T14:28:08.032Z,25.09
2022-08-26T14:33:14.731Z,24.68
2022-08-26T14:38:17.600Z,25.19
2022-08-26T14:43:19.835Z,25.13
2022-08-26T14:48:22.082Z,25.81
2022-08-26T14:53:42.924Z,25.61
2022-08-26T14:58:45.235Z,26.27
2022-08-26T15:03:47.559Z,26.13
2022-08-26T15:08:49.930Z,26.16
2022-08-26T15:13:53.265Z,28.41
2022-08-26T15:18:56.252Z,29.35
2022-08-26T15:23:59.631Z,29.57
2022-08-26T15:29:05.057Z,30.00
2022-08-26T15:34:16.058Z,30.51
2022-08-26T15:39:19.329Z,30.38
2022-08-26T15:44:21.845Z,30.39
2022-08-26T15:49:24.184Z,30.08
2022-08-26T15:54:29.034Z,31.12
2022-08-26T15:59:31.835Z,32.18
2022-08-26T16:04:34.147Z,32.73
2022-08-26T16:09:36.573Z,32.97
2022-08-26T16:14:39.168Z,33.17
2022-08-26T16:19:44.428Z,33.76
2022-08-26T16:24:46.748Z,33.90
2022-08-26T16:29:49.001Z,34.80
2022-08-26T16:34:56.626Z,35.04
2022-08-26T16:39:59.459Z,35.17
2022-08-26T16:45:01.885Z,35.58
2022-08-26T16:50:06.931Z,36.17
2022-08-26T16:55:12.559Z,36.18
2022-08-26T17:00:26.419Z,36.67
2022-08-26T17:05:31.547Z,36.55
2022-08-26T17:10:34.033Z,36.33
2022-08-26T17:15:36.381Z,37.26
2022-08-26T17:20:38.744Z,37.25
2022-08-26T17:25:41.370Z,37.34
2022-08-26T17:30:44.611Z,37.20
2022-08-26T17:35:46.902Z,36.72
2022-08-26T17:40:49.961Z,37.30
2022-08-26T17:45:56.736Z,37.91
2022-08-26T17:51:00.604Z,38.64
2022-08-26T17:56:06.162Z,39.73
2022-08-26T18:01:11.033Z,39.36
2022-08-26T18:06:14.951Z,39.29
2022-08-26T18:11:20.496Z,39.16
2022-08-26T18:16:23.618Z,39.51
2022-08-26T18:21:27.854Z,39.27
2022-08-26T18:26:34.606Z,40.20
2022-08-26T18:31:39.641Z,40.35
2022-08-26T18:36:42.662Z,40.49
2022-08-26T18:41:48.014Z,41.19
2022-08-26T18:46:51.411Z,41.23
2022-08-26T18:51:53.728Z,41.12
2022-08-26T18:56:56.579Z,41.59
2022-08-26T19:01:59.274Z,41.75
2022-08-26T19:07:01.729Z,41.38
2022-08-26T19:12:05.752Z,42.02
2022-08-26T19:17:08.350Z,42.34
2022-08-26T19:22:13.477Z,42.45
2022-08-26T19:27:15.894Z,42.80
2022-08-26T19:32:19.182Z,43.15
2022-08-26T19:37:21.631Z,43.85
2022-08-26T19:42:23.885Z,44.20
2022-08-26T19:47:27.445Z,44.02
2022-08-26T19:52:30.430Z,43.80
2022-08-26T19:57:33.511Z,43.73
2022-08-26T20:02:36.482Z,43.94
2022-08-26T20:07:39.630Z,44.97
2022-08-26T20:12:42.941Z,45.25
2022-08-26T20:17:45.338Z,45.47
2022-08-26T20:22:48.556Z,45.26
2022-08-26T20:27:51.232Z,46.39
2022-08-26T20:32:53.636Z,46.66
2022-08-26T20:37:55.970Z,46.69
2022-08-26T20:43:01.165Z,46.71
2022-08-26T20:48:03.979Z,47.34
2022-08-26T20:53:06.995Z,47.37
2022-08-26T20:58:09.508Z,47.54
2022-08-26T21:03:11.880Z,47.90
2022-08-26T21:08:14.191Z,48.05
2022-08-26T21:13:16.551Z,49.62
2022-08-26T21:18:18.851Z,50.97
2022-08-26T21:23:21.211Z,51.21
2022-08-26T21:28:23.545Z,51.78
2022-08-26T21:33:25.923Z,52.28
2022-08-26T21:38:33.193Z,52.92
2022-08-26T21:43:36.887Z,53.16
2022-08-26T21:48:40.211Z,53.53
2022-08-26T21:53:42.915Z,54.03
2022-08-26T21:58:45.346Z,54.01
2022-08-26T22:03:49.124Z,53.82
2022-08-26T22:08:52.293Z,53.34
2022-08-26T22:13:57.214Z,53.45
2022-08-26T22:19:01.341Z,53.61
2022-08-26T22:24:24.030Z,53.79
2022-08-26T22:29:27.298Z,54.08
2022-08-26T22:34:29.603Z,53.95
2022-08-26T22:39:31.930Z,54.59
2022-08-26T22:44:36.788Z,54.94
2022-08-26T22:49:39.031Z,55.24
2022-08-26T22:54:41.332Z,55.62
2022-08-26T22:59:43.701Z,55.41
2022-08-26T23:04:45.979Z,55.02
2022-08-26T23:09:49.798Z,55.17
2022-08-26T23:14:52.095Z,55.55
2022-08-26T23:19:55.461Z,55.82
2022-08-26T23:24:58.304Z,55.80
2022-08-26T23:30:02.667Z,55.90
2022-08-26T23:35:06.598Z,55.98
2022-08-26T23:40:13.341Z,56.35
2022-08-26T23:45:18.612Z,56.45
2022-08-26T23:50:23.649Z,56.88
2022-08-26T23:55:44.498Z,57.18
